createdAt,value
2023-02-27T00:01:37.193Z,30.28
2023-02-27T00:05:37.267Z,30.28
2023-02-27T00:09:37.397Z,30.25
2023-02-27T00:13:37.456Z,30.27
2023-02-27T00:17:37.543Z,30.25
2023-02-27T00:21:37.667Z,30.21
2023-02-27T00:25:37.775Z,30.25
2023-02-27T00:29:37.857Z,30.24
2023-02-27T00:33:37.940Z,30.26
2023-02-27T00:37:38.039Z,30.27
2023-02-27T00:41:38.129Z,30.28
2023-02-27T00:45:38.217Z,30.22
2023-02-27T00:49:38.294Z,30.24
2023-02-27T00:53:38.401Z,30.25
2023-02-27T00:57:38.498Z,30.25
2023-02-27T01:01:38.565Z,30.21
2023-02-27T01:05:38.640Z,30.21
2023-02-27T01:09:38.708Z,30.15
2023-02-27T01:13:38.817Z,30.21
2023-02-27T01:17:38.898Z,30.22
2023-02-27T01:21:38.974Z,30.19
2023-02-27T01:25:39.030Z,30.15
2023-02-27T01:29:39.159Z,30.17
2023-02-27T01:33:39.213Z,30.11
2023-02-27T01:37:39.314Z,30.15
2023-02-27T01:41:39.402Z,30.12
2023-02-27T01:45:39.605Z,30.14
2023-02-27T01:49:39.630Z,30.08
2023-02-27T01:53:39.736Z,30.17
2023-02-27T01:57:39.806Z,30.14
2023-02-27T02:01:39.915Z,30.08
2023-02-27T02:05:40.035Z,30.08
2023-02-27T02:09:40.136Z,30.08
2023-02-27T02:13:40.299Z,30.07
2023-02-27T02:17:40.381Z,30.00
2023-02-27T02:21:40.480Z,30.08
2023-02-27T02:25:40.577Z,30.07
2023-02-27T02:29:40.713Z,30.07
2023-02-27T02:33:40.789Z,30.06
2023-02-27T02:37:40.898Z,30.08
2023-02-27T02:41:41.025Z,30.03
2023-02-27T02:45:41.128Z,30.06
2023-02-27T02:49:41.264Z,30.01
2023-02-27T02:53:41.337Z,30.03
2023-02-27T02:57:41.439Z,30.03
2023-02-27T03:01:41.629Z,30.04
2023-02-27T03:05:41.667Z,30.03
2023-02-27T03:09:41.793Z,30.01
2023-02-27T03:13:43.669Z,29.99
2023-02-27T03:17:42.051Z,29.96
2023-02-27T03:21:42.150Z,29.96
2023-02-27T03:25:42.265Z,29.94
2023-02-27T03:29:42.374Z,29.94
2023-02-27T03:33:42.482Z,29.97
2023-02-27T03:37:42.599Z,29.97
2023-02-27T03:41:42.713Z,29.91
2023-02-27T03:45:42.801Z,29.90
2023-02-27T03:49:42.964Z,29.87
2023-02-27T03:53:43.071Z,29.91
2023-02-27T03:57:43.198Z,29.89
2023-02-27T04:01:43.325Z,29.87
2023-02-27T04:05:43.409Z,29.86
2023-02-27T04:09:43.497Z,29.86
2023-02-27T04:13:43.605Z,29.85
2023-02-27T04:17:43.842Z,29.81
2023-02-27T04:21:43.872Z,29.86
2023-02-27T04:25:43.863Z,29.81
2023-02-27T04:29:43.831Z,29.82
2023-02-27T04:33:43.850Z,29.74
2023-02-27T04:37:43.836Z,29.71
2023-02-27T04:41:43.882Z,29.67
2023-02-27T04:45:44.110Z,29.66
2023-02-27T04:49:44.117Z,29.68
2023-02-27T04:53:44.299Z,29.60
2023-02-27T04:57:44.428Z,29.59
2023-02-27T05:01:44.432Z,29.63
2023-02-27T05:05:44.344Z,29.63
2023-02-27T05:09:44.323Z,29.66
2023-02-27T05:13:44.255Z,29.67
2023-02-27T05:17:44.234Z,29.67
2023-02-27T05:21:44.219Z,29.70
2023-02-27T05:25:44.178Z,29.71
2023-02-27T05:29:44.156Z,29.73
2023-02-27T05:33:44.123Z,29.76
2023-02-27T05:37:44.333Z,29.73
2023-02-27T05:41:44.279Z,29.72
2023-02-27T05:45:44.268Z,29.69
2023-02-27T05:49:44.222Z,29.72
2023-02-27T05:53:44.178Z,29.75
2023-02-27T05:57:44.156Z,29.70
2023-02-27T06:01:46.192Z,29.72
2023-02-27T06:05:44.168Z,29.69
2023-02-27T06:09:44.201Z,29.71
2023-02-27T06:13:44.124Z,29.71
2023-02-27T06:17:44.095Z,29.68
2023-02-27T06:21:44.035Z,29.69
2023-02-27T06:25:44.052Z,29.75
2023-02-27T06:29:44.003Z,29.66
2023-02-27T06:33:43.960Z,29.73
2023-02-27T06:37:43.934Z,29.66
2023-02-27T06:41:44.195Z,29.69
2023-02-27T06:45:44.018Z,29.69
2023-02-27T06:49:44.186Z,29.66
2023-02-27T06:53:44.178Z,29.70
2023-02-27T06:57:43.894Z,29.69
2023-02-27T07:01:44.205Z,29.68
2023-02-27T07:05:43.840Z,29.68
2023-02-27T07:09:43.804Z,29.68
2023-02-27T07:13:43.780Z,29.65
2023-02-27T07:17:43.736Z,29.61
2023-02-27T07:21:43.787Z,29.63
2023-02-27T07:25:44.195Z,29.63
2023-02-27T07:29:43.709Z,29.60
2023-02-27T07:33:43.697Z,29.64
2023-02-27T07:37:43.658Z,29.64
2023-02-27T07:41:43.604Z,29.58
2023-02-27T07:45:43.686Z,29.57
2023-02-27T07:49:43.521Z,29.56
2023-02-27T07:53:43.720Z,29.55
2023-02-27T07:57:43.695Z,29.60
2023-02-27T08:01:43.477Z,29.66
2023-02-27T08:05:43.434Z,29.57
2023-02-27T08:09:43.394Z,29.58
2023-02-27T08:14:01.036Z,29.63
2023-02-27T08:17:44.337Z,29.63
2023-02-27T08:21:43.369Z,29.68
2023-02-27T08:25:43.322Z,29.64
2023-02-27T08:29:43.336Z,29.64
2023-02-27T08:33:43.259Z,22.32
2023-02-27T08:37:43.219Z,21.69
2023-02-27T08:41:43.175Z,20.86
2023-02-27T08:45:43.278Z,22.56
2023-02-27T08:49:43.223Z,24.89
2023-02-27T08:53:43.220Z,24.86
2023-02-27T08:57:43.028Z,25.60
2023-02-27T09:01:42.960Z,25.78
2023-02-27T09:05:43.246Z,26.27
2023-02-27T09:09:42.935Z,26.86
2023-02-27T09:13:42.964Z,27.18
2023-02-27T09:17:42.820Z,27.43
2023-02-27T09:21:42.838Z,28.35
2023-02-27T09:25:43.251Z,28.37
2023-02-27T09:29:42.870Z,28.82
2023-02-27T09:33:42.830Z,29.09
2023-02-27T09:37:42.795Z,29.34
2023-02-27T09:41:43.227Z,29.22
2023-02-27T09:45:42.799Z,29.29
2023-02-27T09:49:42.753Z,29.44
2023-02-27T09:53:42.671Z,28.99
2023-02-27T09:57:42.658Z,29.28
2023-02-27T10:01:42.724Z,30.19
2023-02-27T10:05:42.563Z,31.00
2023-02-27T10:09:42.487Z,31.56
2023-02-27T10:13:42.472Z,32.26
2023-02-27T10:17:42.774Z,32.87
2023-02-27T10:21:42.430Z,28.40
2023-02-27T10:25:42.503Z,24.54
2023-02-27T10:29:42.425Z,26.10
2023-02-27T10:33:42.334Z,27.67
2023-02-27T10:37:42.272Z,29.09
2023-02-27T10:41:42.351Z,29.72
2023-02-27T10:45:42.781Z,29.34
2023-02-27T10:49:42.728Z,29.31
2023-02-27T10:53:42.898Z,30.48
2023-02-27T10:57:42.487Z,31.01
2023-02-27T11:01:42.661Z,31.68
2023-02-27T11:05:42.736Z,32.10
2023-02-27T11:09:42.573Z,32.47
2023-02-27T11:13:42.519Z,32.78
2023-02-27T11:17:42.737Z,33.05
2023-02-27T11:21:42.481Z,33.23
2023-02-27T11:25:42.442Z,33.50
2023-02-27T11:29:42.749Z,33.93
2023-02-27T11:33:42.359Z,34.08
2023-02-27T11:37:42.347Z,33.55
2023-02-27T11:41:42.761Z,33.27
2023-02-27T11:46:04.290Z,33.10
2023-02-27T11:49:43.521Z,32.87
2023-02-27T11:53:42.515Z,32.80
2023-02-27T11:57:42.804Z,32.63
2023-02-27T12:01:42.780Z,32.50
2023-02-27T12:05:42.541Z,32.15
2023-02-27T12:09:42.532Z,32.33
2023-02-27T12:13:42.571Z,32.77
2023-02-27T12:17:42.666Z,33.11
2023-02-27T12:21:42.767Z,33.61
2023-02-27T12:25:42.570Z,34.02
2023-02-27T12:29:42.779Z,34.10
2023-02-27T12:33:42.819Z,33.80
2023-02-27T12:37:42.435Z,33.48
2023-02-27T12:41:42.768Z,33.38
2023-02-27T12:45:42.452Z,33.39
2023-02-27T12:49:42.358Z,33.32
2023-02-27T12:53:42.325Z,33.22
2023-02-27T12:57:42.300Z,33.18
2023-02-27T13:01:42.301Z,33.14
2023-02-27T13:05:42.230Z,33.10
2023-02-27T13:09:42.206Z,33.05
2023-02-27T13:13:42.219Z,32.98
2023-02-27T13:17:42.127Z,32.92
2023-02-27T13:21:42.070Z,32.82
2023-02-27T13:25:42.390Z,32.76
2023-02-27T13:29:42.193Z,32.69
2023-02-27T13:33:42.323Z,32.56
2023-02-27T13:37:42.456Z,32.49
2023-02-27T13:41:42.549Z,32.47
2023-02-27T13:45:42.712Z,32.36
2023-02-27T13:49:42.846Z,32.32
2023-02-27T13:53:42.973Z,32.25
2023-02-27T13:57:43.088Z,32.18
2023-02-27T14:01:43.246Z,32.10
2023-02-27T14:05:43.441Z,32.08
2023-02-27T14:09:43.564Z,32.04
2023-02-27T14:13:43.653Z,31.99
2023-02-27T14:17:43.781Z,31.96
2023-02-27T14:21:43.928Z,31.90
2023-02-27T14:25:44.047Z,31.80
2023-02-27T14:29:44.176Z,31.82
2023-02-27T14:33:44.218Z,31.77
2023-02-27T14:37:44.353Z,31.82
2023-02-27T14:41:44.407Z,31.71
2023-02-27T14:45:44.498Z,31.59
2023-02-27T14:49:44.631Z,31.53
2023-02-27T14:53:44.715Z,31.42
2023-02-27T14:57:44.768Z,31.38
2023-02-27T15:01:44.901Z,31.33
2023-02-27T15:05:44.894Z,31.33
2023-02-27T15:09:45.353Z,31.32
2023-02-27T15:13:45.371Z,31.25
2023-02-27T15:17:45.165Z,31.27
2023-02-27T15:21:45.221Z,31.18
2023-02-27T15:25:45.277Z,31.17
2023-02-27T15:29:45.413Z,31.15
2023-02-27T15:33:45.427Z,31.15
2023-02-27T15:37:45.682Z,31.25
2023-02-27T15:41:45.656Z,31.16
2023-02-27T15:45:45.778Z,31.17
2023-02-27T15:49:45.871Z,31.17
2023-02-27T15:53:46.008Z,31.23
2023-02-27T15:58:00.784Z,31.16
2023-02-27T16:01:47.097Z,31.13
2023-02-27T16:05:45.983Z,31.12
2023-02-27T16:09:48.585Z,31.05
2023-02-27T16:13:45.918Z,31.11
2023-02-27T16:17:45.882Z,31.07
2023-02-27T16:21:45.857Z,30.98
2023-02-27T16:25:47.562Z,31.09
2023-02-27T16:29:45.764Z,31.02
2023-02-27T16:33:45.743Z,31.00
2023-02-27T16:37:45.713Z,30.95
2023-02-27T16:41:45.664Z,30.98
2023-02-27T16:45:45.637Z,30.96
2023-02-27T16:49:45.767Z,30.91
2023-02-27T16:53:45.867Z,30.95
2023-02-27T16:57:45.960Z,30.91
2023-02-27T17:01:46.042Z,30.98
2023-02-27T17:05:46.174Z,30.90
2023-02-27T17:09:46.381Z,30.91
2023-02-27T17:13:46.364Z,30.88
2023-02-27T17:17:46.485Z,30.91
2023-02-27T17:21:46.638Z,30.91
2023-02-27T17:25:46.704Z,30.89
2023-02-27T17:29:46.865Z,30.96
2023-02-27T17:33:46.964Z,30.86
2023-02-27T17:37:47.096Z,30.85
2023-02-27T17:41:47.279Z,30.85
2023-02-27T17:45:47.450Z,30.83
2023-02-27T17:49:47.580Z,30.84
2023-02-27T17:53:47.734Z,30.87
2023-02-27T17:57:47.935Z,30.83
2023-02-27T18:01:48.173Z,30.80
2023-02-27T18:05:48.290Z,30.79
2023-02-27T18:09:48.460Z,30.79
2023-02-27T18:13:48.649Z,30.80
2023-02-27T18:17:48.845Z,30.74
2023-02-27T18:21:49.016Z,30.76
2023-02-27T18:25:49.204Z,30.71
2023-02-27T18:29:49.404Z,30.70
2023-02-27T18:33:50.786Z,30.74
2023-02-27T18:37:49.926Z,30.70
2023-02-27T18:41:50.035Z,30.67
2023-02-27T18:45:50.280Z,30.66
2023-02-27T18:49:50.475Z,30.66
2023-02-27T18:53:50.483Z,30.66
2023-02-27T18:57:50.374Z,30.63
2023-02-27T19:01:50.350Z,30.58
2023-02-27T19:05:50.307Z,30.54
2023-02-27T19:09:50.293Z,30.57
2023-02-27T19:13:50.248Z,30.58
2023-02-27T19:17:50.220Z,30.55
2023-02-27T19:21:50.214Z,30.48
2023-02-27T19:25:50.153Z,30.51
2023-02-27T19:29:50.253Z,30.48
2023-02-27T19:33:50.271Z,30.53
2023-02-27T19:37:50.206Z,30.54
2023-02-27T19:41:50.164Z,30.51
2023-02-27T19:45:50.140Z,30.46
2023-02-27T19:49:50.089Z,30.48
2023-02-27T19:53:50.055Z,30.51
2023-02-27T19:57:50.043Z,30.52
2023-02-27T20:01:50.007Z,30.51
2023-02-27T20:05:50.003Z,30.42
2023-02-27T20:09:50.008Z,30.42
2023-02-27T20:13:50.159Z,30.44
2023-02-27T20:17:50.294Z,30.39
2023-02-27T20:21:50.411Z,30.37
2023-02-27T20:25:50.554Z,30.39
2023-02-27T20:29:50.637Z,30.39
2023-02-27T20:33:50.743Z,30.36
2023-02-27T20:37:50.854Z,30.36
2023-02-27T20:41:50.977Z,30.36
2023-02-27T20:45:51.077Z,30.35
2023-02-27T20:49:51.124Z,30.35
2023-02-27T20:53:51.149Z,30.32
2023-02-27T20:57:51.217Z,30.32
2023-02-27T21:01:51.675Z,30.35
2023-02-27T21:05:51.336Z,30.33
2023-02-27T21:09:51.351Z,30.35
2023-02-27T21:13:51.382Z,30.33
2023-02-27T21:17:51.401Z,30.32
2023-02-27T21:21:51.406Z,30.29
2023-02-27T21:25:51.482Z,30.23
2023-02-27T21:29:51.479Z,30.22
2023-02-27T21:33:51.551Z,30.28
2023-02-27T21:37:51.570Z,30.23
2023-02-27T21:41:51.559Z,30.21
2023-02-27T21:45:51.575Z,30.18
2023-02-27T21:49:51.535Z,30.24
2023-02-27T21:53:51.511Z,30.27
2023-02-27T21:57:51.486Z,30.20
2023-02-27T22:01:51.497Z,30.20
2023-02-27T22:05:51.467Z,30.26
2023-02-27T22:09:51.421Z,30.17
2023-02-27T22:13:51.447Z,30.18
2023-02-27T22:17:51.421Z,30.13
2023-02-27T22:21:51.483Z,30.10
2023-02-27T22:25:51.399Z,30.09
2023-02-27T22:29:51.402Z,30.10
2023-02-27T22:33:51.367Z,30.11
2023-02-27T22:37:51.661Z,30.08
2023-02-27T22:41:51.358Z,30.16
2023-02-27T22:45:51.364Z,30.10
2023-02-27T22:49:51.339Z,30.09
2023-02-27T22:53:51.291Z,30.06
2023-02-27T22:57:51.327Z,30.07
2023-02-27T23:01:51.352Z,30.10
2023-02-27T23:05:51.308Z,30.04
2023-02-27T23:09:51.265Z,30.13
2023-02-27T23:13:51.389Z,30.01
2023-02-27T23:17:57.879Z,30.01
2023-02-27T23:21:52.228Z,30.02
2023-02-27T23:25:51.195Z,29.96
2023-02-27T23:29:51.183Z,29.97
2023-02-27T23:33:51.141Z,29.99
2023-02-27T23:37:51.091Z,30.02
2023-02-27T23:41:51.074Z,29.99
2023-02-27T23:45:51.111Z,29.99
2023-02-27T23:49:51.085Z,29.94
2023-02-27T23:53:51.118Z,29.92
2023-02-27T23:57:51.126Z,29.90
